Stations météo

réclame
Mon MeteoGroup
San Vicente, Espagne (8017): Température de l'air & dewpoint: 07.12.2017 00:00:00 - 13.12.2017 00:00:00 (CET)San Vicente, Espagne (8017): Vitesse du vent & gusts: 07.12.2017 00:00:00 - 13.12.2017 00:00:00 (CET)San Vicente, Espagne (8017): Direction du vent: 07.12.2017 00:00:00 - 13.12.2017 00:00:00 (CET)San Vicente, Espagne (8017): reduced air pressure: 07.12.2017 00:00:00 - 13.12.2017 00:00:00 (CET)San Vicente, Espagne (8017): Quantités de précipitations: 07.12.2017 00:00:00 - 13.12.2017 00:00:00 (CET)
Date & Time tt [°C] td [°C] ff [km/h] ff [knt] fx [km/h] fx [knt] dd ppp [hPa] rr [mm]
13.12.2017 00:00:00 - - - - - - - - -
12.12.2017 23:00:00 5,9 3,8 11 6 17 9 SSW 1020,8 0,0
12.12.2017 22:00:00 6,3 3,6 10 6 16 9 SSW 1020,8 0,0
12.12.2017 21:00:00 6,1 4,3 11 6 16 9 SSW 1020,6 0,0
12.12.2017 20:00:00 7,1 5,0 10 5 16 8 SSW 1020,1 0,0
12.12.2017 19:00:00 8,6 6,2 9 5 11 6 S 1020,3 -
12.12.2017 18:00:00 10,5 5,0 3 2 21 12 SW 1019,9 0,0
12.12.2017 17:00:00 11,2 5,5 13 7 26 14 W 1019,0 0,0
12.12.2017 16:00:00 11,0 5,3 14 8 28 15 W 1018,4 0,0
12.12.2017 15:00:00 11,4 5,3 12 7 31 17 W 1018,1 0,0
12.12.2017 14:00:00 11,2 5,3 17 9 31 17 WNW 1018,0 0,0
12.12.2017 13:00:00 10,9 5,0 19 11 34 18 W 1017,9 -
12.12.2017 12:00:00 11,3 6,1 3 2 26 14 WSW 1017,7 0,0
12.12.2017 11:00:00 9,7 5,6 4 2 16 9 SW 1017,1 0,0
12.12.2017 10:00:00 7,0 4,6 4 2 18 10 SW 1016,1 0,0
12.12.2017 09:00:00 5,7 3,8 5 3 18 10 SSW 1015,4 0,0
12.12.2017 08:00:00 5,7 3,9 5 3 17 9 SW 1014,7 0,0
12.12.2017 07:00:00 5,0 3,6 4 2 22 12 SSW 1014,0 -
12.12.2017 06:00:00 5,1 3,8 1 1 23 12 SW 1013,4 0,6
12.12.2017 05:00:00 6,3 4,3 4 2 24 13 SW 1012,7 0,7
12.12.2017 04:00:00 6,5 3,9 3 2 22 12 WSW 1011,3 0,0
12.12.2017 03:00:00 6,6 4,1 1 1 31 17 SSW 1010,0 0,2
12.12.2017 02:00:00 7,2 4,1 15 8 38 20 W 1009,8 1,5
12.12.2017 01:00:00 8,2 3,4 10 6 48 26 W 1009,0 -
12.12.2017 00:00:00 9,4 4,8 25 14 66 36 WNW 1008,6 0,2
11.12.2017 23:00:00 10,7 4,6 42 23 54 29 NW 1006,9 0,0
11.12.2017 22:00:00 10,2 4,5 27 14 82 44 NW 1005,7 0,0
11.12.2017 21:00:00 9,9 3,6 44 24 75 41 NW 1003,8 0,1
11.12.2017 20:00:00 7,6 2,7 18 10 48 26 W 1002,8 0,0
11.12.2017 19:00:00 7,9 3,2 22 12 57 31 W 1001,2 -
11.12.2017 18:00:00 8,1 3,8 14 8 42 23 W 999,9 0,0
11.12.2017 17:00:00 6,9 5,5 7 4 49 26 WSW 998,1 2,1
11.12.2017 16:00:00 6,5 5,1 21 11 52 28 W 997,2 2,8
11.12.2017 15:00:00 7,0 5,3 16 9 54 29 W 996,0 2,7
11.12.2017 14:00:00 7,9 5,9 33 18 60 33 WNW 994,8 1,0
11.12.2017 13:00:00 8,1 5,0 38 21 63 34 W 993,6 -
11.12.2017 12:00:00 9,1 5,3 8 5 51 27 WSW 992,6 0,3
11.12.2017 11:00:00 9,7 4,5 25 13 49 27 W 991,4 0,2
11.12.2017 10:00:00 9,0 4,6 34 19 65 35 W 990,3 0,0
11.12.2017 09:00:00 8,5 4,3 11 6 29 16 W 989,2 0,0
11.12.2017 08:00:00 8,4 4,8 19 10 65 35 W 988,4 0,1
11.12.2017 07:00:00 8,7 4,5 9 5 29 16 WSW 988,0 -
11.12.2017 06:00:00 8,3 4,8 3 1 40 22 SW 986,6 0,0
11.12.2017 05:00:00 8,8 5,1 13 7 61 33 W 986,5 0,3
11.12.2017 04:00:00 9,4 5,9 17 9 43 23 W 985,7 0,0
11.12.2017 03:00:00 9,7 7,3 31 17 66 35 W 984,9 0,0
11.12.2017 02:00:00 10,4 8,8 9 5 40 21 W 982,9 0,3
11.12.2017 01:00:00 10,3 9,0 25 13 45 25 W 983,1 -
11.12.2017 00:00:00 10,3 9,2 27 15 95 51 W 983,7 7,3
10.12.2017 23:00:00 12,0 10,8 26 14 63 34 W 981,1 0,1
10.12.2017 22:00:00 11,6 10,3 5 3 26 14 SE 980,8 0,0
10.12.2017 21:00:00 12,4 11,1 9 5 23 12 E 984,2 0,0
10.12.2017 20:00:00 12,2 11,1 3 2 27 14 E 986,8 0,5
10.12.2017 19:00:00 12,3 11,2 10 5 19 11 E 990,3 -
10.12.2017 18:00:00 12,2 11,1 3 1 15 8 SSE 992,8 1,1
10.12.2017 17:00:00 12,4 11,3 7 4 37 20 SW 996,6 3,8
10.12.2017 16:00:00 12,5 11,4 16 8 48 26 W 998,0 1,1
10.12.2017 15:00:00 12,1 11,0 27 15 49 27 WNW 999,4 1,0
10.12.2017 14:00:00 13,1 11,8 24 13 47 25 WNW 1001,2 2,2
10.12.2017 13:00:00 14,6 13,2 9 5 35 19 WNW 1002,7 -
10.12.2017 12:00:00 15,9 11,4 2 1 10 6 ESE 1002,5 0,2
10.12.2017 11:00:00 16,0 10,5 3 1 9 5 SE 1004,0 0,2
10.12.2017 10:00:00 16,9 9,0 5 3 12 6 SSW 1004,3 0,0
10.12.2017 09:00:00 17,4 8,5 3 2 16 9 SW 1005,2 0,0
10.12.2017 08:00:00 17,3 8,4 6 3 21 12 SSW 1005,9 0,1
10.12.2017 07:00:00 17,0 8,4 7 4 18 10 SSW 1006,9 -
10.12.2017 06:00:00 16,0 8,7 5 3 19 10 SSW 1008,0 0,0
10.12.2017 05:00:00 14,5 9,7 4 2 15 8 S 1009,6 0,0
10.12.2017 04:00:00 14,8 10,0 2 1 18 10 WNW 1011,2 0,0
10.12.2017 03:00:00 14,0 10,4 9 5 15 8 SSW 1012,0 0,0
10.12.2017 02:00:00 13,3 10,3 11 6 15 8 S 1012,9 0,0
10.12.2017 01:00:00 13,4 10,8 10 5 22 12 S 1013,9 -
10.12.2017 00:00:00 14,2 10,6 8 4 27 15 SSW 1014,6 0,0
09.12.2017 23:00:00 16,5 9,9 9 5 33 18 W 1015,0 0,0
09.12.2017 22:00:00 16,1 10,9 17 9 33 18 W 1015,2 0,0
09.12.2017 21:00:00 15,7 12,1 17 9 29 16 W 1015,8 0,0
09.12.2017 20:00:00 14,8 13,1 16 9 33 18 W 1016,3 0,0
09.12.2017 19:00:00 10,9 9,8 9 5 14 7 SSW 1016,5 -
09.12.2017 18:00:00 10,8 9,7 6 3 15 8 SSW 1017,3 0,1
09.12.2017 17:00:00 10,1 9,0 9 5 14 8 S 1017,9 1,1
09.12.2017 16:00:00 10,4 9,2 4 2 9 5 SSE 1018,6 0,7
09.12.2017 15:00:00 10,2 8,9 5 3 13 7 SE 1019,5 1,3
09.12.2017 14:00:00 10,3 9,0 4 2 10 5 SE 1021,7 1,4
09.12.2017 13:00:00 10,6 9,3 6 3 9 5 S 1023,4 -
09.12.2017 12:00:00 10,2 8,9 4 2 9 5 S 1024,8 0,0
09.12.2017 11:00:00 9,2 8,0 6 3 11 6 S 1025,5 0,2
09.12.2017 10:00:00 8,9 7,7 7 4 11 6 S 1025,9 0,0
09.12.2017 09:00:00 8,5 7,4 7 4 11 6 SSW 1026,0 0,0
09.12.2017 08:00:00 8,3 7,3 7 4 13 7 S 1026,3 0,0
09.12.2017 07:00:00 8,5 7,3 8 4 13 7 S 1026,6 -
09.12.2017 06:00:00 8,5 7,3 7 4 14 7 SSW 1027,0 0,0
09.12.2017 05:00:00 8,5 7,3 8 4 11 6 S 1027,2 0,0
09.12.2017 04:00:00 9,1 7,8 6 4 16 9 SSW 1027,7 0,0
09.12.2017 03:00:00 8,5 7,4 4 2 13 7 SSW 1028,0 0,0
09.12.2017 02:00:00 8,5 7,4 5 3 13 7 SSW 1028,1 0,0
09.12.2017 01:00:00 8,6 7,6 5 3 15 8 SSW 1028,8 -
09.12.2017 00:00:00 8,7 7,6 5 3 13 7 SSW 1029,1 0,4
08.12.2017 23:00:00 8,8 7,7 1 0 11 6 SW 1029,3 0,5
08.12.2017 22:00:00 8,9 7,8 4 2 16 9 SSW 1029,1 2,0
08.12.2017 21:00:00 9,1 8,0 6 4 10 5 S 1029,1 0,2
08.12.2017 20:00:00 9,3 8,3 0 0 10 6 SSW 1028,8 2,1
08.12.2017 19:00:00 9,5 8,4 3 2 9 5 WSW 1028,6 -
08.12.2017 18:00:00 9,3 8,3 1 1 9 5 SW 1028,5 0,5
08.12.2017 17:00:00 9,6 8,5 3 2 10 5 SSW 1028,5 0,6
08.12.2017 16:00:00 9,8 8,8 4 2 10 5 WSW 1028,2 0,7
08.12.2017 15:00:00 10,4 9,3 5 3 14 7 W 1028,2 0,7
08.12.2017 14:00:00 10,6 9,6 14 7 29 16 N 1028,4 1,2
08.12.2017 13:00:00 11,0 10,0 13 7 22 12 N 1028,7 -
08.12.2017 12:00:00 11,6 10,6 14 7 20 11 NW 1029,1 1,5
08.12.2017 11:00:00 11,4 10,4 13 7 23 13 N 1028,8 4,0
08.12.2017 10:00:00 11,6 10,6 5 3 26 14 NNW 1028,1 1,8
08.12.2017 09:00:00 11,5 10,5 18 10 29 16 N 1027,4 2,0
08.12.2017 08:00:00 11,9 11,0 13 7 27 14 N 1026,7 1,7
08.12.2017 07:00:00 12,2 11,2 13 7 29 16 NW 1026,6 -
08.12.2017 06:00:00 12,5 11,6 9 5 21 11 N 1026,1 1,3
08.12.2017 05:00:00 12,7 11,8 17 9 48 26 N 1025,6 1,3
08.12.2017 04:00:00 13,7 12,7 31 17 44 24 WNW 1024,9 2,5
08.12.2017 03:00:00 13,0 11,9 7 4 26 14 W 1024,9 1,8
08.12.2017 02:00:00 13,1 11,7 6 3 16 9 W 1025,1 0,8
08.12.2017 01:00:00 13,9 11,8 7 4 16 8 WSW 1024,8 -
08.12.2017 00:00:00 14,2 12,5 10 5 21 11 W 1024,9 0,1
07.12.2017 23:00:00 12,7 11,2 6 3 16 9 SSW 1025,0 0,0
07.12.2017 22:00:00 12,2 11,1 11 6 16 9 S 1025,0 0,1
07.12.2017 21:00:00 12,4 11,1 10 5 13 7 S 1026,0 0,4
07.12.2017 20:00:00 13,1 11,1 8 4 27 14 S 1025,4 0,3
07.12.2017 19:00:00 14,4 10,0 8 4 15 8 SW 1024,6 -
07.12.2017 18:00:00 15,4 8,7 6 4 12 6 SSW 1024,2 0,0
07.12.2017 17:00:00 15,6 10,5 9 5 11 6 S 1024,3 0,0
07.12.2017 16:00:00 16,4 9,0 6 4 10 5 S 1024,3 0,0
07.12.2017 15:00:00 16,2 8,0 8 4 17 9 SSW 1024,6 0,0
07.12.2017 14:00:00 14,7 6,7 10 5 18 10 SSW 1025,4 0,0
07.12.2017 13:00:00 14,4 6,5 10 5 17 9 SSW 1025,6 -
07.12.2017 12:00:00 13,2 4,8 4 2 19 10 SW 1026,7 0,0
07.12.2017 11:00:00 11,1 5,1 8 5 16 9 S 1026,9 0,0
07.12.2017 10:00:00 9,6 5,5 13 7 18 10 S 1027,0 0,0
07.12.2017 09:00:00 9,6 3,4 13 7 22 12 S 1027,4 0,0
07.12.2017 08:00:00 8,9 2,5 13 7 19 10 SSW 1027,3 0,0
07.12.2017 07:00:00 9,5 2,7 13 7 18 10 S 1027,4 -
07.12.2017 06:00:00 9,3 2,1 13 7 19 10 S 1027,4 0,0
07.12.2017 05:00:00 9,3 3,2 10 5 21 11 S 1027,2 0,0
07.12.2017 04:00:00 7,3 4,1 15 8 19 10 S 1027,4 0,0
07.12.2017 03:00:00 6,9 4,5 15 8 18 10 S 1027,8 0,0
07.12.2017 02:00:00 7,4 3,8 12 6 18 10 SSW 1028,5 0,0
07.12.2017 01:00:00 7,6 3,8 13 7 19 10 SSW 1028,9 -
07.12.2017 00:00:00 6,0 4,1 13 7 16 9 SSW 1029,2 0,0

tt = Température de l'air
td = dewpoint
ff = Vitesse du vent
fx = gusts
dd = Direction du vent
ppp = reduced air pressure
rr = Quantités de précipitations

stations d'obs. à proximité